sensor_id;sensor_type;location;lat;lon;timestamp;P1;durP1;ratioP1;P2;durP2;ratioP2
73315;SDS011;61545;53.726;-0.444;2023-12-20T00:04:18;8.8;;;2.3;;
73315;SDS011;61545;53.726;-0.444;2023-12-20T00:09:18;8.8;;;2.3;;
73315;SDS011;61545;53.726;-0.444;2023-12-20T00:14:18;14.3;;;2.8;;
73315;SDS011;61545;53.726;-0.444;2023-12-20T00:19:18;13.8;;;2.7;;
73315;SDS011;61545;53.726;-0.444;2023-12-20T00:24:18;13.1;;;2.6;;
73315;SDS011;61545;53.726;-0.444;2023-12-20T00:29:18;10.2;;;2.6;;
73315;SDS011;61545;53.726;-0.444;2023-12-20T00:34:18;11.2;;;2.4;;
73315;SDS011;61545;53.726;-0.444;2023-12-20T00:39:18;11.2;;;2.4;;
73315;SDS011;61545;53.726;-0.444;2023-12-20T00:44:18;10.9;;;2.3;;
73315;SDS011;61545;53.726;-0.444;2023-12-20T00:49:18;15.8;;;2.4;;
73315;SDS011;61545;53.726;-0.444;2023-12-20T00:54:18;17.5;;;3;;
73315;SDS011;61545;53.726;-0.444;2023-12-20T00:59:18;12.4;;;2.9;;
73315;SDS011;61545;53.726;-0.444;2023-12-20T01:04:18;17.4;;;3.1;;
73315;SDS011;61545;53.726;-0.444;2023-12-20T01:09:18;17.4;;;3.1;;
73315;SDS011;61545;53.726;-0.444;2023-12-20T01:14:18;13.2;;;2.6;;
73315;SDS011;61545;53.726;-0.444;2023-12-20T01:19:18;13.8;;;2.5;;
73315;SDS011;61545;53.726;-0.444;2023-12-20T01:24:18;15.9;;;2.2;;
73315;SDS011;61545;53.726;-0.444;2023-12-20T01:29:18;16.4;;;2.5;;
73315;SDS011;61545;53.726;-0.444;2023-12-20T01:34:18;13.5;;;2.2;;
73315;SDS011;61545;53.726;-0.444;2023-12-20T01:39:18;13.5;;;2.2;;
73315;SDS011;61545;53.726;-0.444;2023-12-20T01:44:18;14.1;;;2.5;;
73315;SDS011;61545;53.726;-0.444;2023-12-20T01:49:18;14.0;;;2.1;;
73315;SDS011;61545;53.726;-0.444;2023-12-20T01:54:18;10.1;;;2;;
73315;SDS011;61545;53.726;-0.444;2023-12-20T01:59:18;12.3;;;2;;
73315;SDS011;61545;53.726;-0.444;2023-12-20T02:04:18;12.5;;;2.6;;
73315;SDS011;61545;53.726;-0.444;2023-12-20T02:09:18;12.5;;;2.6;;
73315;SDS011;61545;53.726;-0.444;2023-12-20T02:14:18;9.3;;;2.2;;
73315;SDS011;61545;53.726;-0.444;2023-12-20T02:19:18;7.3;;;2.1;;
73315;SDS011;61545;53.726;-0.444;2023-12-20T02:24:18;10.0;;;2.1;;
73315;SDS011;61545;53.726;-0.444;2023-12-20T02:29:18;12.0;;;2.4;;
73315;SDS011;61545;53.726;-0.444;2023-12-20T02:34:18;15.6;;;2.5;;
73315;SDS011;61545;53.726;-0.444;2023-12-20T02:39:19;15.6;;;2.5;;
73315;SDS011;61545;53.726;-0.444;2023-12-20T02:44:18;15.4;;;2.6;;
73315;SDS011;61545;53.726;-0.444;2023-12-20T02:49:18;12.2;;;2.5;;
73315;SDS011;61545;53.726;-0.444;2023-12-20T02:54:18;10.6;;;2.3;;
73315;SDS011;61545;53.726;-0.444;2023-12-20T02:59:18;13.4;;;2.5;;
73315;SDS011;61545;53.726;-0.444;2023-12-20T03:04:18;13.6;;;2.7;;
73315;SDS011;61545;53.726;-0.444;2023-12-20T03:09:18;13.6;;;2.7;;
73315;SDS011;61545;53.726;-0.444;2023-12-20T03:14:18;13.3;;;2.6;;
73315;SDS011;61545;53.726;-0.444;2023-12-20T03:19:18;15.7;;;2.8;;
73315;SDS011;61545;53.726;-0.444;2023-12-20T03:24:18;13.4;;;3.3;;
73315;SDS011;61545;53.726;-0.444;2023-12-20T03:29:18;18.7;;;2.3;;
73315;SDS011;61545;53.726;-0.444;2023-12-20T03:34:18;12.0;;;2.3;;
73315;SDS011;61545;53.726;-0.444;2023-12-20T03:39:18;12.0;;;2.3;;
73315;SDS011;61545;53.726;-0.444;2023-12-20T03:44:18;12.8;;;3;;
73315;SDS011;61545;53.726;-0.444;2023-12-20T03:49:18;11.4;;;2.4;;
73315;SDS011;61545;53.726;-0.444;2023-12-20T03:54:18;14.7;;;2.5;;
73315;SDS011;61545;53.726;-0.444;2023-12-20T03:59:18;12.4;;;2.5;;
73315;SDS011;61545;53.726;-0.444;2023-12-20T04:04:18;11.9;;;2.4;;
73315;SDS011;61545;53.726;-0.444;2023-12-20T04:09:18;11.9;;;2.4;;
73315;SDS011;61545;53.726;-0.444;2023-12-20T04:14:18;15.7;;;2.8;;
73315;SDS011;61545;53.726;-0.444;2023-12-20T04:19:18;14.7;;;2.6;;
73315;SDS011;61545;53.726;-0.444;2023-12-20T04:24:18;13.3;;;2.7;;
73315;SDS011;61545;53.726;-0.444;2023-12-20T04:29:18;11.3;;;2.3;;
73315;SDS011;61545;53.726;-0.444;2023-12-20T04:34:18;10.9;;;2.1;;
73315;SDS011;61545;53.726;-0.444;2023-12-20T04:39:18;10.9;;;2.1;;
73315;SDS011;61545;53.726;-0.444;2023-12-20T04:44:18;9.2;;;2;;
73315;SDS011;61545;53.726;-0.444;2023-12-20T04:49:18;11.6;;;1.7;;
73315;SDS011;61545;53.726;-0.444;2023-12-20T04:54:18;17.5;;;3.8;;
73315;SDS011;61545;53.726;-0.444;2023-12-20T04:59:18;12.4;;;2.3;;
73315;SDS011;61545;53.726;-0.444;2023-12-20T05:04:18;12.9;;;2.4;;
73315;SDS011;61545;53.726;-0.444;2023-12-20T05:09:18;12.9;;;2.4;;
73315;SDS011;61545;53.726;-0.444;2023-12-20T05:14:18;9.7;;;2.1;;
73315;SDS011;61545;53.726;-0.444;2023-12-20T05:19:18;7.3;;;1.7;;
73315;SDS011;61545;53.726;-0.444;2023-12-20T05:24:18;11.2;;;2.1;;
73315;SDS011;61545;53.726;-0.444;2023-12-20T05:29:18;12.0;;;2.1;;
73315;SDS011;61545;53.726;-0.444;2023-12-20T05:34:18;10.0;;;1.9;;
73315;SDS011;61545;53.726;-0.444;2023-12-20T05:39:18;10.0;;;1.9;;
73315;SDS011;61545;53.726;-0.444;2023-12-20T05:44:18;11.7;;;1.9;;
73315;SDS011;61545;53.726;-0.444;2023-12-20T05:49:18;9.1;;;1.8;;
73315;SDS011;61545;53.726;-0.444;2023-12-20T05:54:18;5.4;;;2;;
73315;SDS011;61545;53.726;-0.444;2023-12-20T05:59:18;10.4;;;1.8;;
73315;SDS011;61545;53.726;-0.444;2023-12-20T06:04:18;8.3;;;1.2;;
73315;SDS011;61545;53.726;-0.444;2023-12-20T06:09:18;8.3;;;1.2;;
73315;SDS011;61545;53.726;-0.444;2023-12-20T06:14:18;7.7;;;1.9;;
73315;SDS011;61545;53.726;-0.444;2023-12-20T06:19:18;8.1;;;1.6;;
73315;SDS011;61545;53.726;-0.444;2023-12-20T06:24:18;10.8;;;1.7;;
73315;SDS011;61545;53.726;-0.444;2023-12-20T06:29:18;8.1;;;1.6;;
73315;SDS011;61545;53.726;-0.444;2023-12-20T06:34:18;7.1;;;1.4;;
73315;SDS011;61545;53.726;-0.444;2023-12-20T06:39:18;7.1;;;1.4;;
73315;SDS011;61545;53.726;-0.444;2023-12-20T06:44:18;5.9;;;1.4;;
73315;SDS011;61545;53.726;-0.444;2023-12-20T06:49:18;8.6;;;1.6;;
73315;SDS011;61545;53.726;-0.444;2023-12-20T06:54:18;5.2;;;1.1;;
73315;SDS011;61545;53.726;-0.444;2023-12-20T06:59:18;6.7;;;1.2;;
73315;SDS011;61545;53.726;-0.444;2023-12-20T07:04:19;5.4;;;1.4;;
73315;SDS011;61545;53.726;-0.444;2023-12-20T07:09:18;5.4;;;1.4;;
73315;SDS011;61545;53.726;-0.444;2023-12-20T07:14:18;8.5;;;1.7;;
73315;SDS011;61545;53.726;-0.444;2023-12-20T07:19:18;5.1;;;1.3;;
73315;SDS011;61545;53.726;-0.444;2023-12-20T07:24:18;4.9;;;1.2;;
73315;SDS011;61545;53.726;-0.444;2023-12-20T07:29:19;6.9;;;1.6;;
73315;SDS011;61545;53.726;-0.444;2023-12-20T07:34:18;5.5;;;1.1;;
73315;SDS011;61545;53.726;-0.444;2023-12-20T07:39:18;5.5;;;1.1;;
73315;SDS011;61545;53.726;-0.444;2023-12-20T07:44:18;6.2;;;1.4;;
73315;SDS011;61545;53.726;-0.444;2023-12-20T07:49:18;5.3;;;1.2;;
73315;SDS011;61545;53.726;-0.444;2023-12-20T07:54:18;9.8;;;1.8;;
73315;SDS011;61545;53.726;-0.444;2023-12-20T07:59:18;7.7;;;1.3;;
73315;SDS011;61545;53.726;-0.444;2023-12-20T08:04:18;7.5;;;1.6;;
73315;SDS011;61545;53.726;-0.444;2023-12-20T08:09:18;7.5;;;1.6;;
73315;SDS011;61545;53.726;-0.444;2023-12-20T08:14:18;8.5;;;1.8;;
73315;SDS011;61545;53.726;-0.444;2023-12-20T08:19:18;10.9;;;1.8;;
73315;SDS011;61545;53.726;-0.444;2023-12-20T08:24:18;7.1;;;1.7;;
73315;SDS011;61545;53.726;-0.444;2023-12-20T08:29:18;7.0;;;1.8;;
73315;SDS011;61545;53.726;-0.444;2023-12-20T08:34:18;8.7;;;1.4;;
73315;SDS011;61545;53.726;-0.444;2023-12-20T08:39:18;8.7;;;1.4;;
73315;SDS011;61545;53.726;-0.444;2023-12-20T08:44:18;6.2;;;1.3;;
73315;SDS011;61545;53.726;-0.444;2023-12-20T08:49:18;4.3;;;1.1;;
73315;SDS011;61545;53.726;-0.444;2023-12-20T08:54:18;5.4;;;1.4;;
73315;SDS011;61545;53.726;-0.444;2023-12-20T08:59:18;6.1;;;1.4;;
73315;SDS011;61545;53.726;-0.444;2023-12-20T09:04:18;6.3;;;1;;
73315;SDS011;61545;53.726;-0.444;2023-12-20T09:09:18;6.3;;;1;;
73315;SDS011;61545;53.726;-0.444;2023-12-20T09:14:18;7.3;;;1.3;;
73315;SDS011;61545;53.726;-0.444;2023-12-20T09:19:18;5.7;;;1.4;;
73315;SDS011;61545;53.726;-0.444;2023-12-20T09:24:18;6.9;;;1.1;;
73315;SDS011;61545;53.726;-0.444;2023-12-20T09:29:18;7.3;;;1.4;;
73315;SDS011;61545;53.726;-0.444;2023-12-20T09:34:18;10.4;;;2.1;;
73315;SDS011;61545;53.726;-0.444;2023-12-20T09:39:19;10.4;;;2.1;;
73315;SDS011;61545;53.726;-0.444;2023-12-20T09:44:18;6.6;;;1.4;;
73315;SDS011;61545;53.726;-0.444;2023-12-20T09:49:18;11.8;;;1.9;;
73315;SDS011;61545;53.726;-0.444;2023-12-20T09:54:18;9.1;;;1.9;;
73315;SDS011;61545;53.726;-0.444;2023-12-20T09:59:18;5.5;;;1.8;;
73315;SDS011;61545;53.726;-0.444;2023-12-20T10:04:18;9.5;;;2.3;;
73315;SDS011;61545;53.726;-0.444;2023-12-20T10:09:18;9.5;;;2.3;;
73315;SDS011;61545;53.726;-0.444;2023-12-20T10:14:18;12.2;;;2.3;;
73315;SDS011;61545;53.726;-0.444;2023-12-20T10:19:19;13.5;;;3.2;;
73315;SDS011;61545;53.726;-0.444;2023-12-20T10:24:18;9.6;;;1.8;;
73315;SDS011;61545;53.726;-0.444;2023-12-20T10:29:18;12.2;;;1.9;;
73315;SDS011;61545;53.726;-0.444;2023-12-20T10:34:18;12.9;;;2.7;;
73315;SDS011;61545;53.726;-0.444;2023-12-20T10:39:18;12.9;;;2.7;;
73315;SDS011;61545;53.726;-0.444;2023-12-20T10:44:18;7.9;;;1.7;;
73315;SDS011;61545;53.726;-0.444;2023-12-20T10:49:18;10.9;;;2.5;;
73315;SDS011;61545;53.726;-0.444;2023-12-20T10:54:18;11.9;;;2;;
73315;SDS011;61545;53.726;-0.444;2023-12-20T10:59:19;9.2;;;2.1;;
73315;SDS011;61545;53.726;-0.444;2023-12-20T11:04:20;10.0;;;2.1;;
73315;SDS011;61545;53.726;-0.444;2023-12-20T11:09:21;10.0;;;2.1;;
73315;SDS011;61545;53.726;-0.444;2023-12-20T11:14:20;6.9;;;1.8;;
73315;SDS011;61545;53.726;-0.444;2023-12-20T11:19:18;9.0;;;1.8;;
73315;SDS011;61545;53.726;-0.444;2023-12-20T11:24:21;6.1;;;1.6;;
73315;SDS011;61545;53.726;-0.444;2023-12-20T11:29:35;6.8;;;1.4;;
73315;SDS011;61545;53.726;-0.444;2023-12-20T11:34:18;6.6;;;1.2;;
73315;SDS011;61545;53.726;-0.444;2023-12-20T11:39:21;6.6;;;1.2;;
73315;SDS011;61545;53.726;-0.444;2023-12-20T11:44:18;6.6;;;1.4;;
73315;SDS011;61545;53.726;-0.444;2023-12-20T11:49:18;5.7;;;1;;
73315;SDS011;61545;53.726;-0.444;2023-12-20T11:54:18;4.0;;;0.9;;
73315;SDS011;61545;53.726;-0.444;2023-12-20T11:59:18;3.4;;;1;;
73315;SDS011;61545;53.726;-0.444;2023-12-20T12:04:18;2.9;;;0.8;;
73315;SDS011;61545;53.726;-0.444;2023-12-20T12:09:18;2.9;;;0.8;;
73315;SDS011;61545;53.726;-0.444;2023-12-20T12:14:18;3.4;;;0.6;;
73315;SDS011;61545;53.726;-0.444;2023-12-20T12:19:20;1.7;;;0.5;;
73315;SDS011;61545;53.726;-0.444;2023-12-20T12:24:20;3.8;;;0.6;;
73315;SDS011;61545;53.726;-0.444;2023-12-20T12:29:18;2.0;;;0.6;;
73315;SDS011;61545;53.726;-0.444;2023-12-20T12:34:18;3.7;;;0.9;;
73315;SDS011;61545;53.726;-0.444;2023-12-20T12:39:18;3.7;;;0.9;;
73315;SDS011;61545;53.726;-0.444;2023-12-20T12:44:18;2.4;;;0.7;;
73315;SDS011;61545;53.726;-0.444;2023-12-20T12:49:18;4.3;;;0.8;;
73315;SDS011;61545;53.726;-0.444;2023-12-20T12:54:18;4.1;;;0.9;;
73315;SDS011;61545;53.726;-0.444;2023-12-20T12:59:18;2.6;;;1.1;;
73315;SDS011;61545;53.726;-0.444;2023-12-20T13:04:18;8.8;;;1.4;;
73315;SDS011;61545;53.726;-0.444;2023-12-20T13:09:18;8.8;;;1.4;;
73315;SDS011;61545;53.726;-0.444;2023-12-20T13:14:18;5.5;;;1.3;;
73315;SDS011;61545;53.726;-0.444;2023-12-20T13:19:18;4.4;;;1.1;;
73315;SDS011;61545;53.726;-0.444;2023-12-20T13:24:18;2.4;;;0.9;;
73315;SDS011;61545;53.726;-0.444;2023-12-20T13:29:18;5.6;;;1.6;;
73315;SDS011;61545;53.726;-0.444;2023-12-20T13:34:18;5.4;;;1.4;;
73315;SDS011;61545;53.726;-0.444;2023-12-20T13:39:18;5.4;;;1.4;;
73315;SDS011;61545;53.726;-0.444;2023-12-20T13:44:18;6.0;;;1.3;;
73315;SDS011;61545;53.726;-0.444;2023-12-20T13:49:18;3.6;;;1.2;;
73315;SDS011;61545;53.726;-0.444;2023-12-20T13:54:18;5.2;;;1.5;;
73315;SDS011;61545;53.726;-0.444;2023-12-20T13:59:18;6.1;;;1.5;;
73315;SDS011;61545;53.726;-0.444;2023-12-20T14:04:18;5.8;;;1.3;;
73315;SDS011;61545;53.726;-0.444;2023-12-20T14:09:19;5.8;;;1.3;;
73315;SDS011;61545;53.726;-0.444;2023-12-20T14:14:18;5.0;;;1.1;;
73315;SDS011;61545;53.726;-0.444;2023-12-20T14:19:18;4.2;;;1.1;;
73315;SDS011;61545;53.726;-0.444;2023-12-20T14:24:18;4.7;;;1;;
73315;SDS011;61545;53.726;-0.444;2023-12-20T14:29:18;6.2;;;1.3;;
73315;SDS011;61545;53.726;-0.444;2023-12-20T14:34:18;3.0;;;1;;
73315;SDS011;61545;53.726;-0.444;2023-12-20T14:39:18;3.0;;;1;;
73315;SDS011;61545;53.726;-0.444;2023-12-20T14:44:18;2.3;;;1;;
73315;SDS011;61545;53.726;-0.444;2023-12-20T14:49:18;2.0;;;0.9;;
73315;SDS011;61545;53.726;-0.444;2023-12-20T14:54:18;3.9;;;1.3;;
73315;SDS011;61545;53.726;-0.444;2023-12-20T14:59:18;3.5;;;1.2;;
73315;SDS011;61545;53.726;-0.444;2023-12-20T15:04:18;2.8;;;1;;
73315;SDS011;61545;53.726;-0.444;2023-12-20T15:09:18;2.8;;;1;;
73315;SDS011;61545;53.726;-0.444;2023-12-20T15:14:18;2.1;;;0.7;;
73315;SDS011;61545;53.726;-0.444;2023-12-20T15:19:18;3.2;;;1;;
73315;SDS011;61545;53.726;-0.444;2023-12-20T15:24:18;2.9;;;0.9;;
73315;SDS011;61545;53.726;-0.444;2023-12-20T15:29:18;2.6;;;0.9;;
73315;SDS011;61545;53.726;-0.444;2023-12-20T15:34:18;4.1;;;1.4;;
73315;SDS011;61545;53.726;-0.444;2023-12-20T15:39:18;4.1;;;1.4;;
73315;SDS011;61545;53.726;-0.444;2023-12-20T15:44:18;4.3;;;1;;
73315;SDS011;61545;53.726;-0.444;2023-12-20T15:49:18;4.4;;;1.1;;
73315;SDS011;61545;53.726;-0.444;2023-12-20T15:54:18;2.3;;;1;;
73315;SDS011;61545;53.726;-0.444;2023-12-20T15:59:18;4.5;;;1.5;;
73315;SDS011;61545;53.726;-0.444;2023-12-20T16:04:18;5.2;;;1.6;;
73315;SDS011;61545;53.726;-0.444;2023-12-20T16:09:18;5.2;;;1.6;;
73315;SDS011;61545;53.726;-0.444;2023-12-20T16:14:18;2.4;;;1.1;;
73315;SDS011;61545;53.726;-0.444;2023-12-20T16:19:18;4.3;;;1.1;;
73315;SDS011;61545;53.726;-0.444;2023-12-20T16:24:18;2.8;;;1.2;;
73315;SDS011;61545;53.726;-0.444;2023-12-20T16:29:18;3.8;;;1;;
73315;SDS011;61545;53.726;-0.444;2023-12-20T16:34:18;2.6;;;1;;
73315;SDS011;61545;53.726;-0.444;2023-12-20T16:39:19;2.6;;;1;;
73315;SDS011;61545;53.726;-0.444;2023-12-20T16:44:18;4.4;;;1;;
73315;SDS011;61545;53.726;-0.444;2023-12-20T16:49:18;2.5;;;1.1;;
73315;SDS011;61545;53.726;-0.444;2023-12-20T16:54:18;1.8;;;0.8;;
73315;SDS011;61545;53.726;-0.444;2023-12-20T16:59:18;1.8;;;0.8;;
73315;SDS011;61545;53.726;-0.444;2023-12-20T17:04:18;2.3;;;0.8;;
73315;SDS011;61545;53.726;-0.444;2023-12-20T17:09:18;2.3;;;0.8;;
73315;SDS011;61545;53.726;-0.444;2023-12-20T17:14:18;1.6;;;0.6;;
73315;SDS011;61545;53.726;-0.444;2023-12-20T17:19:18;2.7;;;0.9;;
73315;SDS011;61545;53.726;-0.444;2023-12-20T17:24:18;2.2;;;0.9;;
73315;SDS011;61545;53.726;-0.444;2023-12-20T17:29:18;1.7;;;0.6;;
73315;SDS011;61545;53.726;-0.444;2023-12-20T17:34:18;3.0;;;0.9;;
73315;SDS011;61545;53.726;-0.444;2023-12-20T17:39:18;3.0;;;0.9;;
73315;SDS011;61545;53.726;-0.444;2023-12-20T17:44:18;2.3;;;1;;
73315;SDS011;61545;53.726;-0.444;2023-12-20T17:49:18;2.2;;;0.7;;
73315;SDS011;61545;53.726;-0.444;2023-12-20T17:54:18;3.3;;;1;;
73315;SDS011;61545;53.726;-0.444;2023-12-20T17:59:18;3.9;;;0.9;;
73315;SDS011;61545;53.726;-0.444;2023-12-20T18:04:18;4.2;;;1.4;;
73315;SDS011;61545;53.726;-0.444;2023-12-20T18:09:18;4.2;;;1.4;;
73315;SDS011;61545;53.726;-0.444;2023-12-20T18:14:18;3.6;;;0.9;;
73315;SDS011;61545;53.726;-0.444;2023-12-20T18:19:18;3.8;;;1.1;;
73315;SDS011;61545;53.726;-0.444;2023-12-20T18:24:18;5.3;;;1.2;;
73315;SDS011;61545;53.726;-0.444;2023-12-20T18:29:18;3.7;;;0.9;;
73315;SDS011;61545;53.726;-0.444;2023-12-20T18:34:18;2.1;;;0.6;;
73315;SDS011;61545;53.726;-0.444;2023-12-20T18:39:18;2.1;;;0.6;;
73315;SDS011;61545;53.726;-0.444;2023-12-20T18:44:18;2.2;;;0.8;;
73315;SDS011;61545;53.726;-0.444;2023-12-20T18:49:18;3.0;;;0.9;;
73315;SDS011;61545;53.726;-0.444;2023-12-20T18:54:18;2.5;;;0.8;;
73315;SDS011;61545;53.726;-0.444;2023-12-20T18:59:18;5.1;;;1;;
73315;SDS011;61545;53.726;-0.444;2023-12-20T19:04:18;3.0;;;1;;
73315;SDS011;61545;53.726;-0.444;2023-12-20T19:09:18;3.0;;;1;;
73315;SDS011;61545;53.726;-0.444;2023-12-20T19:14:18;3.1;;;1.1;;
73315;SDS011;61545;53.726;-0.444;2023-12-20T19:19:18;3.3;;;1.3;;
73315;SDS011;61545;53.726;-0.444;2023-12-20T19:24:18;3.2;;;1.2;;
73315;SDS011;61545;53.726;-0.444;2023-12-20T19:29:18;3.4;;;0.9;;
73315;SDS011;61545;53.726;-0.444;2023-12-20T19:34:18;3.8;;;1;;
73315;SDS011;61545;53.726;-0.444;2023-12-20T19:39:18;3.8;;;1;;
73315;SDS011;61545;53.726;-0.444;2023-12-20T19:44:18;3.9;;;1;;
73315;SDS011;61545;53.726;-0.444;2023-12-20T19:49:18;3.4;;;1.1;;
73315;SDS011;61545;53.726;-0.444;2023-12-20T19:54:18;2.8;;;0.9;;
73315;SDS011;61545;53.726;-0.444;2023-12-20T19:59:18;2.7;;;1.1;;
73315;SDS011;61545;53.726;-0.444;2023-12-20T20:04:18;2.7;;;1.1;;
73315;SDS011;61545;53.726;-0.444;2023-12-20T20:09:18;1.8;;;0.7;;
73315;SDS011;61545;53.726;-0.444;2023-12-20T20:14:18;2.4;;;0.8;;
73315;SDS011;61545;53.726;-0.444;2023-12-20T20:19:18;4.2;;;1.1;;
73315;SDS011;61545;53.726;-0.444;2023-12-20T20:24:18;10.0;;;1.2;;
73315;SDS011;61545;53.726;-0.444;2023-12-20T20:29:18;2.4;;;0.9;;
73315;SDS011;61545;53.726;-0.444;2023-12-20T20:34:18;2.4;;;0.9;;
73315;SDS011;61545;53.726;-0.444;2023-12-20T20:39:18;3.1;;;0.9;;
73315;SDS011;61545;53.726;-0.444;2023-12-20T20:44:18;4.1;;;1.1;;
73315;SDS011;61545;53.726;-0.444;2023-12-20T20:49:18;4.1;;;0.9;;
73315;SDS011;61545;53.726;-0.444;2023-12-20T20:54:18;5.2;;;1.5;;
73315;SDS011;61545;53.726;-0.444;2023-12-20T20:59:18;3.6;;;1.3;;
73315;SDS011;61545;53.726;-0.444;2023-12-20T21:04:18;3.6;;;1.3;;
73315;SDS011;61545;53.726;-0.444;2023-12-20T21:09:18;5.2;;;1.6;;
73315;SDS011;61545;53.726;-0.444;2023-12-20T21:14:18;5.3;;;1.3;;
73315;SDS011;61545;53.726;-0.444;2023-12-20T21:19:18;3.6;;;1.3;;
73315;SDS011;61545;53.726;-0.444;2023-12-20T21:24:18;3.9;;;1.1;;
73315;SDS011;61545;53.726;-0.444;2023-12-20T21:29:18;4.8;;;1.2;;
73315;SDS011;61545;53.726;-0.444;2023-12-20T21:34:18;4.8;;;1.2;;
73315;SDS011;61545;53.726;-0.444;2023-12-20T21:39:18;4.0;;;1;;
73315;SDS011;61545;53.726;-0.444;2023-12-20T21:44:18;4.7;;;1.2;;
73315;SDS011;61545;53.726;-0.444;2023-12-20T21:49:18;4.1;;;1.2;;
73315;SDS011;61545;53.726;-0.444;2023-12-20T21:54:19;6.1;;;1.1;;
73315;SDS011;61545;53.726;-0.444;2023-12-20T21:59:18;4.2;;;1.3;;
73315;SDS011;61545;53.726;-0.444;2023-12-20T22:04:18;4.2;;;1.3;;
73315;SDS011;61545;53.726;-0.444;2023-12-20T22:09:18;3.3;;;1.1;;
73315;SDS011;61545;53.726;-0.444;2023-12-20T22:14:18;3.6;;;1.3;;
73315;SDS011;61545;53.726;-0.444;2023-12-20T22:19:18;4.8;;;1.3;;
73315;SDS011;61545;53.726;-0.444;2023-12-20T22:24:18;4.3;;;1.1;;
73315;SDS011;61545;53.726;-0.444;2023-12-20T22:29:18;3.0;;;1;;
73315;SDS011;61545;53.726;-0.444;2023-12-20T22:34:18;3.0;;;1;;
73315;SDS011;61545;53.726;-0.444;2023-12-20T22:39:18;2.7;;;1;;
73315;SDS011;61545;53.726;-0.444;2023-12-20T22:44:18;2.8;;;1;;
73315;SDS011;61545;53.726;-0.444;2023-12-20T22:49:18;3.0;;;1;;
73315;SDS011;61545;53.726;-0.444;2023-12-20T22:54:18;3.1;;;0.8;;
73315;SDS011;61545;53.726;-0.444;2023-12-20T22:59:18;2.2;;;0.7;;
73315;SDS011;61545;53.726;-0.444;2023-12-20T23:04:18;2.2;;;0.7;;
73315;SDS011;61545;53.726;-0.444;2023-12-20T23:09:18;2.1;;;0.7;;
73315;SDS011;61545;53.726;-0.444;2023-12-20T23:14:18;2.4;;;0.8;;
73315;SDS011;61545;53.726;-0.444;2023-12-20T23:19:18;3.1;;;0.8;;
73315;SDS011;61545;53.726;-0.444;2023-12-20T23:24:18;1.9;;;0.7;;
73315;SDS011;61545;53.726;-0.444;2023-12-20T23:29:18;3.8;;;0.8;;
73315;SDS011;61545;53.726;-0.444;2023-12-20T23:34:18;3.8;;;0.8;;
73315;SDS011;61545;53.726;-0.444;2023-12-20T23:39:18;2.5;;;0.8;;
73315;SDS011;61545;53.726;-0.444;2023-12-20T23:44:18;2.9;;;0.8;;
73315;SDS011;61545;53.726;-0.444;2023-12-20T23:49:18;4.5;;;0.9;;
73315;SDS011;61545;53.726;-0.444;2023-12-20T23:54:18;4.9;;;1.2;;
73315;SDS011;61545;53.726;-0.444;2023-12-20T23:59:18;2.6;;;0.9;;
